createdAt,value
2019-03-11T00:01:20.116Z,2.66
2019-03-11T00:03:26.476Z,2.69
2019-03-11T00:05:32.715Z,2.71
2019-03-11T00:07:38.985Z,2.71
2019-03-11T00:09:45.243Z,2.71
2019-03-11T00:11:51.392Z,2.74
2019-03-11T00:13:57.558Z,2.76
2019-03-11T00:16:03.720Z,2.74
2019-03-11T00:18:10.477Z,2.75
2019-03-11T00:20:16.751Z,2.76
2019-03-11T00:22:23.018Z,2.76
2019-03-11T00:24:29.170Z,2.78
2019-03-11T00:26:35.413Z,2.77
2019-03-11T00:28:41.793Z,2.77
2019-03-11T00:30:48.052Z,2.79
2019-03-11T00:32:54.211Z,2.79
2019-03-11T00:35:00.376Z,2.78
2019-03-11T00:37:06.733Z,2.79
2019-03-11T00:39:13.193Z,2.78
2019-03-11T00:41:19.426Z,2.78
2019-03-11T00:43:25.609Z,2.76
2019-03-11T00:45:31.874Z,2.74
2019-03-11T00:47:38.223Z,2.76
2019-03-11T00:49:44.606Z,2.75
2019-03-11T00:51:50.961Z,2.75
2019-03-11T00:53:57.528Z,2.78
2019-03-11T00:56:03.910Z,2.78
2019-03-11T00:58:10.139Z,2.78
2019-03-11T01:00:20.839Z,2.78
2019-03-11T01:02:26.981Z,2.76
2019-03-11T01:04:34.155Z,2.77
2019-03-11T01:06:40.208Z,2.77
2019-03-11T01:08:47.280Z,2.78
2019-03-11T01:10:53.645Z,2.77
2019-03-11T01:12:59.909Z,2.76
2019-03-11T01:15:10.150Z,2.75
2019-03-11T01:17:16.330Z,2.75
2019-03-11T01:19:23.696Z,2.75
2019-03-11T01:21:29.748Z,2.76
2019-03-11T01:23:35.922Z,2.78
2019-03-11T01:25:41.973Z,2.77
2019-03-11T01:27:48.247Z,2.79
2019-03-11T01:29:54.495Z,2.80
2019-03-11T01:32:00.759Z,2.77
2019-03-11T01:34:07.017Z,2.74
2019-03-11T01:36:13.400Z,2.72
2019-03-11T01:38:19.526Z,2.68
2019-03-11T01:40:25.690Z,2.70
2019-03-11T01:42:32.052Z,2.72
2019-03-11T01:44:38.210Z,2.74
2019-03-11T01:46:44.384Z,2.75
2019-03-11T01:48:50.937Z,2.78
2019-03-11T01:50:57.013Z,2.81
2019-03-11T01:53:03.567Z,2.81
2019-03-11T01:55:12.491Z,2.81
2019-03-11T01:57:18.946Z,2.82
2019-03-11T01:59:25.204Z,2.86
2019-03-11T02:01:31.256Z,2.86
2019-03-11T02:03:37.515Z,2.85
2019-03-11T02:05:44.285Z,2.86
2019-03-11T02:07:50.441Z,2.88
2019-03-11T02:09:56.619Z,2.87
2019-03-11T02:12:02.757Z,2.83
2019-03-11T02:14:08.921Z,2.81
2019-03-11T02:16:15.178Z,2.79
2019-03-11T02:18:21.538Z,2.77
2019-03-11T02:20:27.691Z,2.70
2019-03-11T02:22:33.748Z,2.66
2019-03-11T02:24:39.930Z,2.61
2019-03-11T02:26:46.186Z,2.55
2019-03-11T02:28:52.344Z,2.51
2019-03-11T02:30:58.691Z,2.46
2019-03-11T02:33:04.950Z,2.44
2019-03-11T02:35:11.425Z,2.43
2019-03-11T02:37:17.882Z,2.42
2019-03-11T02:39:24.982Z,2.43
2019-03-11T02:41:31.526Z,2.44
2019-03-11T02:43:37.683Z,2.42
2019-03-11T02:45:43.962Z,2.37
2019-03-11T02:47:50.217Z,2.32
2019-03-11T02:49:56.567Z,2.30
2019-03-11T02:52:02.767Z,2.27
2019-03-11T02:54:08.986Z,2.22
2019-03-11T02:56:15.573Z,2.19
2019-03-11T02:58:23.450Z,2.14
2019-03-11T03:00:33.421Z,2.12
2019-03-11T03:02:41.145Z,2.10
2019-03-11T03:04:48.797Z,2.11
2019-03-11T03:06:57.314Z,2.16
2019-03-11T03:09:03.991Z,2.21
2019-03-11T03:11:11.455Z,2.21
2019-03-11T03:13:17.616Z,2.24
2019-03-11T03:15:23.683Z,2.25
2019-03-11T03:17:30.655Z,2.24
2019-03-11T03:19:36.808Z,2.25
2019-03-11T03:21:42.865Z,2.28
2019-03-11T03:23:48.923Z,2.28
2019-03-11T03:25:55.169Z,2.30
2019-03-11T03:28:01.946Z,2.31
2019-03-11T03:30:21.216Z,2.29
2019-03-11T03:32:27.501Z,2.25
2019-03-11T03:34:33.634Z,2.23
2019-03-11T03:36:40.094Z,2.18
2019-03-11T03:38:46.254Z,2.12
2019-03-11T03:40:52.417Z,2.04
2019-03-11T03:42:58.785Z,1.99
2019-03-11T03:45:33.409Z,1.93
2019-03-11T03:47:39.651Z,1.87
2019-03-11T03:49:46.023Z,1.82
2019-03-11T03:51:52.190Z,1.77
2019-03-11T03:53:58.346Z,1.72
2019-03-11T03:56:04.500Z,1.68
2019-03-11T03:58:10.671Z,1.66
2019-03-11T04:00:17.828Z,1.64
2019-03-11T04:02:24.093Z,1.65
2019-03-11T04:04:30.264Z,1.63
2019-03-11T04:06:36.698Z,1.61
2019-03-11T04:08:43.089Z,1.61
2019-03-11T04:10:49.251Z,1.57
2019-03-11T04:12:55.525Z,1.54
2019-03-11T04:15:01.785Z,1.52
2019-03-11T04:17:08.306Z,1.46
2019-03-11T04:19:14.791Z,1.42
2019-03-11T04:21:20.956Z,1.40
2019-03-11T04:23:27.114Z,1.37
2019-03-11T04:25:33.720Z,1.32
2019-03-11T04:27:40.438Z,1.29
2019-03-11T04:29:46.497Z,1.27
2019-03-11T04:31:52.960Z,1.26
2019-03-11T04:33:59.119Z,1.19
2019-03-11T04:36:06.415Z,1.17
2019-03-11T04:38:14.098Z,1.12
2019-03-11T04:40:20.867Z,1.07
2019-03-11T04:42:27.189Z,1.06
2019-03-11T04:44:33.371Z,1.02
2019-03-11T04:46:39.972Z,0.99
2019-03-11T04:48:46.221Z,0.93
2019-03-11T04:50:52.369Z,0.90
2019-03-11T04:52:58.439Z,0.84
2019-03-11T04:55:06.734Z,0.82
2019-03-11T04:57:12.910Z,0.81
2019-03-11T04:59:19.053Z,0.77
2019-03-11T05:01:25.114Z,0.75
2019-03-11T05:03:31.397Z,0.74
2019-03-11T05:05:37.535Z,0.72
2019-03-11T05:07:43.676Z,0.70
2019-03-11T05:09:51.410Z,0.68
2019-03-11T05:11:57.643Z,0.68
2019-03-11T05:14:03.856Z,0.65
2019-03-11T05:16:09.953Z,0.62
2019-03-11T05:18:16.120Z,0.59
2019-03-11T05:20:22.152Z,0.56
2019-03-11T05:22:28.154Z,0.57
2019-03-11T05:24:34.385Z,0.56
2019-03-11T05:26:40.550Z,0.58
2019-03-11T05:28:49.247Z,0.55
2019-03-11T05:30:55.416Z,0.56
2019-03-11T05:33:01.783Z,0.58
2019-03-11T05:35:09.110Z,0.55
2019-03-11T05:37:15.431Z,0.59
2019-03-11T05:39:22.826Z,0.61
2019-03-11T05:41:29.071Z,0.64
2019-03-11T05:43:35.352Z,0.67
2019-03-11T05:45:41.481Z,0.70
2019-03-11T05:47:47.750Z,0.69
2019-03-11T05:49:54.116Z,0.74
2019-03-11T05:52:00.103Z,0.78
2019-03-11T05:54:06.226Z,0.82
2019-03-11T05:56:12.289Z,0.83
2019-03-11T05:58:18.645Z,0.90
2019-03-11T06:00:26.568Z,0.92
2019-03-11T06:02:32.592Z,0.91
2019-03-11T06:04:38.750Z,0.95
2019-03-11T06:06:45.416Z,1.04
2019-03-11T06:08:51.426Z,1.07
2019-03-11T06:10:57.546Z,1.14
2019-03-11T06:13:03.599Z,1.13
2019-03-11T06:15:12.873Z,1.12
2019-03-11T06:17:19.087Z,1.20
2019-03-11T06:19:28.572Z,1.31
2019-03-11T06:21:38.066Z,1.34
2019-03-11T06:23:44.419Z,1.39
2019-03-11T06:25:50.586Z,1.39
2019-03-11T06:27:58.257Z,1.39
2019-03-11T06:30:07.966Z,1.45
2019-03-11T06:32:13.335Z,1.45
2019-03-11T06:34:19.530Z,1.49
2019-03-11T06:36:25.875Z,1.46
2019-03-11T06:38:31.937Z,1.51
2019-03-11T06:40:38.086Z,1.56
2019-03-11T06:42:44.457Z,1.58
2019-03-11T06:44:50.708Z,1.55
2019-03-11T06:46:56.868Z,1.67
2019-03-11T06:49:02.941Z,1.94
2019-03-11T06:51:09.016Z,1.99
2019-03-11T06:53:15.138Z,2.17
2019-03-11T06:55:21.287Z,2.16
2019-03-11T06:57:27.456Z,2.05
2019-03-11T06:59:34.016Z,1.98
2019-03-11T07:01:40.170Z,2.01
2019-03-11T07:03:46.248Z,2.14
2019-03-11T07:05:52.387Z,2.22
2019-03-11T07:07:58.558Z,2.24
2019-03-11T07:10:07.997Z,2.27
2019-03-11T07:12:14.359Z,2.80
2019-03-11T07:14:20.646Z,2.60
2019-03-11T07:16:26.876Z,2.55
2019-03-11T07:18:33.027Z,2.82
2019-03-11T07:20:39.376Z,2.70
2019-03-11T07:22:46.787Z,2.78
2019-03-11T07:24:52.935Z,2.99
2019-03-11T07:26:59.181Z,3.44
2019-03-11T07:29:05.348Z,3.38
2019-03-11T07:31:13.056Z,3.18
2019-03-11T07:33:19.293Z,3.17
2019-03-11T07:35:25.356Z,3.13
2019-03-11T07:37:31.626Z,3.08
2019-03-11T07:39:37.876Z,3.10
2019-03-11T07:41:44.231Z,3.04
2019-03-11T07:43:50.424Z,3.06
2019-03-11T07:45:56.656Z,3.00
2019-03-11T07:48:02.814Z,3.07
2019-03-11T07:50:12.556Z,3.09
2019-03-11T07:52:18.820Z,3.14
2019-03-11T07:54:35.287Z,3.13
2019-03-11T07:56:33.073Z,3.12
2019-03-11T07:58:39.139Z,3.13
2019-03-11T08:00:53.453Z,3.21
2019-03-11T08:02:53.103Z,3.23
2019-03-11T08:04:59.550Z,3.36
2019-03-11T08:07:05.668Z,3.48
2019-03-11T08:09:11.861Z,3.62
2019-03-11T08:11:18.130Z,3.77
2019-03-11T08:13:24.375Z,3.87
2019-03-11T08:15:31.446Z,3.92
2019-03-11T08:17:37.571Z,3.93
2019-03-11T08:19:43.788Z,3.85
2019-03-11T08:21:50.258Z,3.93
2019-03-11T08:23:57.641Z,3.96
2019-03-11T08:26:03.766Z,3.87
2019-03-11T08:28:09.954Z,3.89
2019-03-11T08:30:22.240Z,3.81
2019-03-11T08:32:28.418Z,3.97
2019-03-11T08:34:34.672Z,4.14
2019-03-11T08:36:41.039Z,4.13
2019-03-11T08:38:47.204Z,4.29
2019-03-11T08:40:53.466Z,4.37
2019-03-11T08:42:59.716Z,4.57
2019-03-11T08:45:10.197Z,4.51
2019-03-11T08:47:16.450Z,4.50
2019-03-11T08:49:23.809Z,4.68
2019-03-11T08:51:29.982Z,4.84
2019-03-11T08:53:36.135Z,4.82
2019-03-11T08:55:42.187Z,4.86
2019-03-11T08:57:48.352Z,4.70
2019-03-11T08:59:54.507Z,4.54
2019-03-11T09:02:00.659Z,4.51
2019-03-11T09:04:06.936Z,4.53
2019-03-11T09:06:13.185Z,4.36
2019-03-11T09:08:19.224Z,4.36
2019-03-11T09:10:25.308Z,4.19
2019-03-11T09:12:31.546Z,4.18
2019-03-11T09:14:37.721Z,4.23
2019-03-11T09:16:43.981Z,4.41
2019-03-11T09:18:50.236Z,4.52
2019-03-11T09:20:56.388Z,4.61
2019-03-11T09:23:02.565Z,4.72
2019-03-11T09:25:17.195Z,4.79
2019-03-11T09:27:23.368Z,5.03
2019-03-11T09:29:29.619Z,5.20
2019-03-11T09:31:35.707Z,5.19
2019-03-11T09:33:41.841Z,5.27
2019-03-11T09:35:48.003Z,5.45
2019-03-11T09:37:54.146Z,5.57
2019-03-11T09:40:01.039Z,5.58
2019-03-11T09:42:07.401Z,5.47
2019-03-11T09:44:13.649Z,5.43
2019-03-11T09:46:19.935Z,5.38
2019-03-11T09:48:26.287Z,5.33
2019-03-11T09:50:32.425Z,5.30
2019-03-11T09:52:38.612Z,5.35
2019-03-11T09:54:44.850Z,5.31
2019-03-11T09:56:51.120Z,5.34
2019-03-11T09:58:57.376Z,5.40
2019-03-11T10:01:03.416Z,5.34
2019-03-11T10:03:09.587Z,5.34
2019-03-11T10:05:16.272Z,5.33
2019-03-11T10:07:22.728Z,5.35
2019-03-11T10:09:28.891Z,5.43
2019-03-11T10:11:35.136Z,5.58
2019-03-11T10:13:41.289Z,5.71
2019-03-11T10:15:47.466Z,5.76
2019-03-11T10:17:53.623Z,5.99
2019-03-11T10:19:59.870Z,6.01
2019-03-11T10:22:06.032Z,6.05
2019-03-11T10:24:12.207Z,6.09
2019-03-11T10:26:19.461Z,6.23
2019-03-11T10:28:25.641Z,6.29
2019-03-11T10:30:32.105Z,6.38
2019-03-11T10:32:40.804Z,6.35
2019-03-11T10:34:46.254Z,6.19
2019-03-11T10:36:52.344Z,6.21
2019-03-11T10:38:58.491Z,6.18
2019-03-11T10:41:04.848Z,5.96
2019-03-11T10:43:11.090Z,5.94
2019-03-11T10:45:26.623Z,5.86
2019-03-11T10:47:25.862Z,5.90
2019-03-11T10:49:32.023Z,5.93
2019-03-11T10:51:38.184Z,6.05
2019-03-11T10:53:44.248Z,6.09
2019-03-11T10:55:50.527Z,6.10
2019-03-11T10:57:56.977Z,6.10
2019-03-11T11:00:03.631Z,6.14
2019-03-11T11:02:10.801Z,6.22
2019-03-11T11:04:16.840Z,6.34
2019-03-11T11:06:23.012Z,6.41
2019-03-11T11:08:30.577Z,6.58
2019-03-11T11:10:36.559Z,6.65
2019-03-11T11:12:42.740Z,6.65
2019-03-11T11:14:48.779Z,6.79
2019-03-11T11:16:54.924Z,7.08
2019-03-11T11:19:01.941Z,7.42
2019-03-11T11:21:08.237Z,7.53
2019-03-11T11:23:14.332Z,7.57
2019-03-11T11:25:27.303Z,7.76
2019-03-11T11:27:33.400Z,7.75
2019-03-11T11:29:39.875Z,7.88
2019-03-11T11:31:46.137Z,7.85
2019-03-11T11:33:53.541Z,7.50
2019-03-11T11:35:59.782Z,7.54
2019-03-11T11:38:05.849Z,7.53
2019-03-11T11:40:21.732Z,7.65
2019-03-11T11:42:27.895Z,7.66
2019-03-11T11:44:34.151Z,7.58
2019-03-11T11:46:40.295Z,7.46
2019-03-11T11:48:46.439Z,7.60
2019-03-11T11:50:52.646Z,7.52
2019-03-11T11:52:58.898Z,7.43
2019-03-11T11:55:08.609Z,7.17
2019-03-11T11:57:17.506Z,7.07
2019-03-11T11:59:24.307Z,6.85
2019-03-11T12:01:30.792Z,6.67
2019-03-11T12:03:37.594Z,6.65
2019-03-11T12:05:44.885Z,6.65
2019-03-11T12:07:51.600Z,6.68
2019-03-11T12:09:57.763Z,6.77
2019-03-11T12:12:06.035Z,6.78
2019-03-11T12:14:12.123Z,6.86
2019-03-11T12:16:18.368Z,6.80
2019-03-11T12:18:24.588Z,6.84
2019-03-11T12:20:32.040Z,7.02
2019-03-11T12:22:38.221Z,7.10
2019-03-11T12:24:45.055Z,7.10
2019-03-11T12:26:51.220Z,7.28
2019-03-11T12:28:57.389Z,7.42
2019-03-11T12:31:03.920Z,7.53
2019-03-11T12:33:10.443Z,7.66
2019-03-11T12:35:16.982Z,7.55
2019-03-11T12:37:23.646Z,7.59
2019-03-11T12:39:29.808Z,7.41
2019-03-11T12:41:35.966Z,7.42
2019-03-11T12:43:42.232Z,7.37
2019-03-11T12:45:48.391Z,7.53
2019-03-11T12:47:54.748Z,7.35
2019-03-11T12:50:00.913Z,7.46
2019-03-11T12:52:08.822Z,7.32
2019-03-11T12:54:15.402Z,7.41
2019-03-11T12:56:23.042Z,7.21
2019-03-11T12:58:29.217Z,7.12
2019-03-11T13:00:35.275Z,6.95
2019-03-11T13:02:41.543Z,6.98
2019-03-11T13:04:48.107Z,7.09
2019-03-11T13:06:54.462Z,6.99
2019-03-11T13:09:00.651Z,7.06
2019-03-11T13:11:07.809Z,6.90
2019-03-11T13:13:13.975Z,6.80
2019-03-11T13:15:21.263Z,6.85
2019-03-11T13:17:29.541Z,6.83
2019-03-11T13:19:35.753Z,6.90
2019-03-11T13:21:41.993Z,7.00
2019-03-11T13:23:49.480Z,6.97
2019-03-11T13:25:55.753Z,6.97
2019-03-11T13:28:02.026Z,6.95
2019-03-11T13:30:12.591Z,6.88
2019-03-11T13:32:18.726Z,6.82
2019-03-11T13:34:24.864Z,6.78
2019-03-11T13:36:34.462Z,6.80
2019-03-11T13:38:46.060Z,6.73
2019-03-11T13:40:52.552Z,6.80
2019-03-11T13:42:58.730Z,6.75
2019-03-11T13:45:06.342Z,6.78
2019-03-11T13:47:12.697Z,6.74
2019-03-11T13:49:18.931Z,6.80
2019-03-11T13:51:26.833Z,6.66
2019-03-11T13:53:33.324Z,6.59
2019-03-11T13:55:39.665Z,6.61
2019-03-11T13:57:46.649Z,6.56
2019-03-11T13:59:52.921Z,6.51
2019-03-11T14:01:59.457Z,6.47
2019-03-11T14:04:05.618Z,6.45
2019-03-11T14:06:14.240Z,6.48
2019-03-11T14:08:20.900Z,6.60
2019-03-11T14:10:27.276Z,6.72
2019-03-11T14:12:33.529Z,6.61
2019-03-11T14:14:40.718Z,6.56
2019-03-11T14:16:46.969Z,6.51
2019-03-11T14:18:53.449Z,6.45
2019-03-11T14:20:59.718Z,6.43
2019-03-11T14:23:05.968Z,6.40
2019-03-11T14:25:13.657Z,6.40
2019-03-11T14:27:20.951Z,6.42
2019-03-11T14:29:27.201Z,6.38
2019-03-11T14:31:33.371Z,6.40
2019-03-11T14:33:39.857Z,6.48
2019-03-11T14:35:46.097Z,6.42
2019-03-11T14:37:52.358Z,6.41
2019-03-11T14:39:59.755Z,6.36
2019-03-11T14:42:06.305Z,6.37
2019-03-11T14:44:12.446Z,6.30
2019-03-11T14:46:20.690Z,6.23
2019-03-11T14:48:27.043Z,6.15
2019-03-11T14:50:33.290Z,6.12
2019-03-11T14:52:39.657Z,6.15
2019-03-11T14:54:45.911Z,6.12
2019-03-11T14:56:52.087Z,6.10
2019-03-11T14:58:58.225Z,6.15
2019-03-11T15:01:04.588Z,6.01
2019-03-11T15:03:10.979Z,5.83
2019-03-11T15:05:19.484Z,5.61
2019-03-11T15:07:25.909Z,5.52
2019-03-11T15:09:32.103Z,5.53
2019-03-11T15:11:38.472Z,5.53
2019-03-11T15:13:44.718Z,5.57
2019-03-11T15:15:50.975Z,5.56
2019-03-11T15:17:57.240Z,5.55
2019-03-11T15:20:04.901Z,5.50
2019-03-11T15:22:15.192Z,5.42
2019-03-11T15:24:21.436Z,5.42
2019-03-11T15:26:28.996Z,5.34
2019-03-11T15:28:35.194Z,5.27
2019-03-11T15:30:41.455Z,5.21
2019-03-11T15:32:48.046Z,5.14
2019-03-11T15:34:54.284Z,5.11
2019-03-11T15:37:00.547Z,5.08
2019-03-11T15:39:07.525Z,5.06
2019-03-11T15:41:15.530Z,5.03
2019-03-11T15:43:21.892Z,4.98
2019-03-11T15:45:37.979Z,4.93
2019-03-11T15:47:37.174Z,4.95
2019-03-11T15:49:44.811Z,4.89
2019-03-11T15:51:51.005Z,4.84
2019-03-11T15:53:57.273Z,4.82
2019-03-11T15:56:03.647Z,4.76
2019-03-11T15:58:10.007Z,4.73
2019-03-11T16:00:22.266Z,4.71
2019-03-11T16:02:29.048Z,4.68
2019-03-11T16:04:35.691Z,4.65
2019-03-11T16:06:43.653Z,4.62
2019-03-11T16:08:50.139Z,4.58
2019-03-11T16:10:56.372Z,4.54
2019-03-11T16:13:02.944Z,4.52
2019-03-11T16:15:12.090Z,4.50
2019-03-11T16:17:18.545Z,4.47
2019-03-11T16:19:25.322Z,4.47
2019-03-11T16:21:34.532Z,4.43
2019-03-11T16:23:40.991Z,4.40
2019-03-11T16:25:47.271Z,4.37
2019-03-11T16:27:53.761Z,4.36
2019-03-11T16:30:00.349Z,4.30
2019-03-11T16:32:06.863Z,4.27
2019-03-11T16:34:13.161Z,4.23
2019-03-11T16:36:21.433Z,4.19
2019-03-11T16:38:28.099Z,4.15
2019-03-11T16:40:34.351Z,4.13
2019-03-11T16:42:40.732Z,4.07
2019-03-11T16:44:47.229Z,4.03
2019-03-11T16:46:54.012Z,3.99
2019-03-11T16:49:03.223Z,3.96
2019-03-11T16:51:11.100Z,3.94
2019-03-11T16:53:18.982Z,3.93
2019-03-11T16:55:30.795Z,3.92
2019-03-11T16:57:38.800Z,3.90
2019-03-11T16:59:45.358Z,3.87
2019-03-11T17:01:52.434Z,3.86
2019-03-11T17:03:58.687Z,3.84
2019-03-11T17:06:06.378Z,3.82
2019-03-11T17:08:13.161Z,3.81
2019-03-11T17:10:22.482Z,3.82
2019-03-11T17:12:29.089Z,3.82
2019-03-11T17:14:35.573Z,3.83
2019-03-11T17:16:42.509Z,3.85
2019-03-11T17:18:49.486Z,3.84
2019-03-11T17:20:57.841Z,3.86
2019-03-11T17:23:04.282Z,3.86
2019-03-11T17:25:15.918Z,3.87
2019-03-11T17:27:24.139Z,3.87
2019-03-11T17:29:31.440Z,3.87
2019-03-11T17:31:38.780Z,3.86
2019-03-11T17:33:46.087Z,3.83
2019-03-11T17:35:52.980Z,3.80
2019-03-11T17:37:59.719Z,3.75
2019-03-11T17:40:10.839Z,3.70
2019-03-11T17:42:17.920Z,3.64
2019-03-11T17:44:24.924Z,3.60
2019-03-11T17:46:31.788Z,3.55
2019-03-11T17:48:38.633Z,3.52
2019-03-11T17:50:45.086Z,3.49
2019-03-11T17:52:52.169Z,3.48
2019-03-11T17:54:58.805Z,3.46
2019-03-11T17:57:05.238Z,3.41
2019-03-11T17:59:11.971Z,3.38
2019-03-11T18:01:18.800Z,3.35
2019-03-11T18:03:25.320Z,3.32
2019-03-11T18:05:32.478Z,3.29
2019-03-11T18:07:40.486Z,3.26
2019-03-11T18:09:46.827Z,3.22
2019-03-11T18:11:53.828Z,3.14
2019-03-11T18:14:00.486Z,3.10
2019-03-11T18:16:06.943Z,3.04
2019-03-11T18:18:13.244Z,3.01
2019-03-11T18:20:21.195Z,2.96
2019-03-11T18:22:27.661Z,2.91
2019-03-11T18:24:34.330Z,2.88
2019-03-11T18:26:40.701Z,2.85
2019-03-11T18:28:47.159Z,2.81
2019-03-11T18:30:54.238Z,2.78
2019-03-11T18:33:01.082Z,2.73
2019-03-11T18:35:09.090Z,2.68
2019-03-11T18:37:15.804Z,2.69
2019-03-11T18:39:23.333Z,2.66
2019-03-11T18:41:30.152Z,2.62
2019-03-11T18:43:42.552Z,2.60
2019-03-11T18:45:46.883Z,2.59
2019-03-11T18:47:53.407Z,2.55
2019-03-11T18:50:00.400Z,2.51
2019-03-11T18:52:07.160Z,2.48
2019-03-11T18:54:15.459Z,2.46
2019-03-11T18:56:23.620Z,2.45
2019-03-11T18:58:30.781Z,2.49
2019-03-11T19:00:44.769Z,2.53
2019-03-11T19:02:57.688Z,2.56
2019-03-11T19:05:09.297Z,2.56
2019-03-11T19:07:16.600Z,2.56
2019-03-11T19:09:23.278Z,2.56
2019-03-11T19:11:30.153Z,2.55
2019-03-11T19:13:36.632Z,2.56
2019-03-11T19:15:43.533Z,2.57
2019-03-11T19:17:50.974Z,2.56
2019-03-11T19:20:00.002Z,2.56
2019-03-11T19:22:08.129Z,2.50
2019-03-11T19:24:15.503Z,2.46
2019-03-11T19:26:23.383Z,2.43
2019-03-11T19:28:31.476Z,2.41
2019-03-11T19:30:38.167Z,2.40
2019-03-11T19:32:46.413Z,2.35
2019-03-11T19:34:53.251Z,2.30
2019-03-11T19:37:00.062Z,2.28
2019-03-11T19:39:11.284Z,2.23
2019-03-11T19:41:23.562Z,2.20
2019-03-11T19:43:37.673Z,2.15
2019-03-11T19:45:44.537Z,2.15
2019-03-11T19:47:51.042Z,2.13
2019-03-11T19:49:57.981Z,2.12
2019-03-11T19:52:04.906Z,2.11
2019-03-11T19:54:11.571Z,2.07
2019-03-11T19:56:18.432Z,2.04
2019-03-11T19:58:26.804Z,2.08
2019-03-11T20:00:34.967Z,2.04
2019-03-11T20:02:41.510Z,2.05
2019-03-11T20:04:47.853Z,2.01
2019-03-11T20:06:54.336Z,2.03
2019-03-11T20:09:02.352Z,2.01
2019-03-11T20:11:10.749Z,2.00
2019-03-11T20:13:19.028Z,1.99
2019-03-11T20:15:25.600Z,1.99
2019-03-11T20:17:32.019Z,1.98
2019-03-11T20:19:39.300Z,1.96
2019-03-11T20:21:47.291Z,1.94
2019-03-11T20:23:54.337Z,1.93
2019-03-11T20:26:04.131Z,1.91
2019-03-11T20:28:11.019Z,1.89
2019-03-11T20:30:23.203Z,1.87
2019-03-11T20:32:29.741Z,1.84
2019-03-11T20:34:36.367Z,1.81
2019-03-11T20:36:44.271Z,1.78
2019-03-11T20:38:50.560Z,1.75
2019-03-11T20:40:58.306Z,1.73
2019-03-11T20:43:05.036Z,1.74
2019-03-11T20:45:21.014Z,1.74
2019-03-11T20:47:29.529Z,1.73
2019-03-11T20:49:36.104Z,1.74
2019-03-11T20:51:44.426Z,1.74
2019-03-11T20:53:51.046Z,1.74
2019-03-11T20:55:59.537Z,1.76
2019-03-11T20:58:06.436Z,1.79
2019-03-11T21:00:22.278Z,1.77
2019-03-11T21:02:29.160Z,1.79
2019-03-11T21:04:36.468Z,1.78
2019-03-11T21:06:43.232Z,1.74
2019-03-11T21:08:49.819Z,1.72
2019-03-11T21:10:56.865Z,1.69
2019-03-11T21:13:03.433Z,1.66
2019-03-11T21:15:13.586Z,1.61
2019-03-11T21:17:26.879Z,1.55
2019-03-11T21:19:30.148Z,1.49
2019-03-11T21:21:36.762Z,1.43
2019-03-11T21:23:43.572Z,1.36
2019-03-11T21:25:51.584Z,1.34
2019-03-11T21:27:58.184Z,1.29
2019-03-11T21:30:05.844Z,1.23
2019-03-11T21:32:12.782Z,1.19
2019-03-11T21:34:20.688Z,1.18
2019-03-11T21:36:28.602Z,1.14
2019-03-11T21:38:35.724Z,1.11
2019-03-11T21:40:43.190Z,1.07
2019-03-11T21:42:49.819Z,1.02
2019-03-11T21:44:59.377Z,0.96
2019-03-11T21:47:05.758Z,0.94
2019-03-11T21:49:12.559Z,0.93
2019-03-11T21:51:18.805Z,0.94
2019-03-11T21:53:25.162Z,0.90
2019-03-11T21:55:32.063Z,0.87
2019-03-11T21:57:38.814Z,0.82
2019-03-11T21:59:45.255Z,0.79
2019-03-11T22:01:51.525Z,0.81
2019-03-11T22:03:57.678Z,0.81
2019-03-11T22:06:04.246Z,0.79
2019-03-11T22:08:10.501Z,0.76
2019-03-11T22:10:18.752Z,0.76
2019-03-11T22:12:24.969Z,0.78
2019-03-11T22:14:31.227Z,0.74
2019-03-11T22:16:39.345Z,0.68
2019-03-11T22:18:46.972Z,0.64
2019-03-11T22:20:53.307Z,0.61
2019-03-11T22:22:59.543Z,0.56
2019-03-11T22:25:10.913Z,0.50
2019-03-11T22:27:17.405Z,0.48
2019-03-11T22:29:25.748Z,0.47
2019-03-11T22:31:32.107Z,0.45
2019-03-11T22:33:38.427Z,0.42
2019-03-11T22:35:44.614Z,0.39
2019-03-11T22:37:51.031Z,0.33
2019-03-11T22:39:57.197Z,0.29
2019-03-11T22:42:03.369Z,0.29
2019-03-11T22:44:09.623Z,0.31
2019-03-11T22:46:16.086Z,0.29
2019-03-11T22:48:22.748Z,0.25
2019-03-11T22:50:29.008Z,0.21
2019-03-11T22:52:35.384Z,0.21
2019-03-11T22:54:41.671Z,0.20
2019-03-11T22:56:47.904Z,0.16
2019-03-11T22:58:54.264Z,0.18
2019-03-11T23:01:02.311Z,0.15
2019-03-11T23:03:10.078Z,0.14
2019-03-11T23:05:16.426Z,0.10
2019-03-11T23:07:22.869Z,0.09
2019-03-11T23:09:29.160Z,0.12
2019-03-11T23:11:35.387Z,0.17
2019-03-11T23:13:41.583Z,0.16
2019-03-11T23:15:47.826Z,0.14
2019-03-11T23:17:54.078Z,0.09
2019-03-11T23:20:00.520Z,0.05
2019-03-11T23:22:07.532Z,0.00
2019-03-11T23:24:13.766Z,0.00
2019-03-11T23:26:19.936Z,-0.03
2019-03-11T23:28:29.195Z,-0.06
2019-03-11T23:30:36.249Z,-0.06
2019-03-11T23:32:43.130Z,-0.09
2019-03-11T23:34:49.687Z,-0.09
2019-03-11T23:36:55.854Z,-0.07
2019-03-11T23:39:02.112Z,-0.09
2019-03-11T23:41:10.109Z,-0.05
2019-03-11T23:43:16.264Z,-0.07
2019-03-11T23:45:23.172Z,-0.08
2019-03-11T23:47:29.426Z,-0.07
2019-03-11T23:49:35.655Z,-0.03
2019-03-11T23:51:41.916Z,-0.02
2019-03-11T23:53:48.001Z,0.01
2019-03-11T23:55:54.529Z,0.02
2019-03-11T23:58:00.602Z,0.00
